LEALGCHI

Guest
Details From LEAL - Alicante
To GCHI - Hierro
Flight Number -
Tags decoded
Created
Modified
Stats Distance 1,138 nm / 2,108 km
Max Altitude 0 ft / 0 m
Waypoints 8
Social Downloads 0
Likes 0
Share VATSIM

Download

Looking for another format? Having issues loading an existing format? Contact us
Advertisement - Login to hide

Notes

Requested: LEAL YES BLN VULPE SVL LZR GDV GCHI

Route

LEAL YES BLN VULPE SVL LZR GDV GCHI

ID Type Via Altitude Latitude Longitude Leg Dist Tot Dist Heading (true) Name
O LEAL APT - 0 ft / 0 m 38.28217˚ -0.55816˚ - 0 nm - Alicante
YES VOR - 0 ft / 0 m 38.36078˚ -2.35275˚ 84 nm 84 nm 274° / 273° YESTE VOR-DME
BLN VOR - 0 ft / 0 m 38.15252˚ -3.62501˚ 61 nm 145 nm 259° / 258° BAILEN VOR-DME
VULPE FIX - 0 ft / 0 m 37.76122˚ -4.79843˚ 60 nm 206 nm 247° / 247° -
SVL VOR - 0 ft / 0 m 37.42758˚ -5.76222˚ 50 nm 256 nm 247° / 246° SEVILLA VOR-DME
LZR VOR - 0 ft / 0 m 29.16600˚ -13.51073˚ 629 nm 886 nm 220° / 216° LANZAROTE VOR-DME
GDV VOR - 0 ft / 0 m 28.07708˚ -15.42899˚ 120 nm 1006 nm 238° / 237° GRAN CANARIA VOR-DME
O GCHI APT - 0 ft / 0 m 27.81485˚ -17.88705˚ 131 nm 1138 nm 264° / 263° Hierro

Altitude Profile

Advertisement - Login to hide

Weather


0- 5 10 15 20 25 30 35+ Temperature / ° C

Clouds and Precipitation
Forecast for 2018-05-24 18:00 UTC. Updated 3 hours ago

Ground ~20,000 ft ~40,000 ft Winds

LEAL

Details ICAO LEAL (ALC)
Name Alicante
Region Spain
Timezone Europe/Madrid (UTC+2.0)
Stats Elevation 141 ft / 43 m (AMSL)
Location 38.282169° -0.558157°
Runways 1
Magnetic Variation 0.232° E

METAR

LEAL 242000Z 07013KT 9999 FEW015 22/15 Q1011 NOSIG

Decode

TAF

TAF TAF LEAL 241700Z 2418/2518 06016KT 9999 FEW030 TX26/2512Z TN18/2506Z BECMG 2422/2424 33005KT PROB40 TEMPO 2508/2518 25009KT BECMG 2511/2513 17017KT

Decode

Departure Runways

ID Width Length Bearing (true) Bearing (mag) Surface Threshold Offset Overrun Length
10 148 ft / 45 m 9,799 ft / 2,987 m 100.07° 99.84° Asphalt 0 ft / 0 m 164 ft / 50 m
28 148 ft / 45 m 9,799 ft / 2,987 m 280.09° 279.86° Asphalt 0 ft / 0 m 197 ft / 60 m

GCHI

Details ICAO GCHI (VDE)
Name Hierro
Region Canary Islands
Timezone Atlantic/Canary (UTC+1.0)
Stats Elevation 337 ft / 103 m (AMSL)
Location 27.814848° -17.887052°
Runways 1
Magnetic Variation 5.576° W

METAR

GCHI 242000Z AUTO 35015KT 320V020 9999 FEW028/// SCT042/// BKN048/// 20/15 Q1019

Decode

TAF

TAF GCHI 241400Z 2415/2515 01012KT 9999 SCT045 TX23/2514Z TN18/2505Z

Decode

Destination Runways

ID Width Length Bearing (true) Bearing (mag) Surface Threshold Offset Overrun Length
16 98 ft / 30 m 4,110 ft / 1,253 m 152.71° 158.29° Asphalt 0 ft / 0 m 112 ft / 34 m
34 98 ft / 30 m 4,110 ft / 1,253 m 332.71° 338.29° Asphalt 0 ft / 0 m 105 ft / 32 m

Popular Alternatives